NCAR-RAP Real-Time Weather Data

Output produced by METARs form (26 May 2022  08:28 UTC)
found at http://weather.rap.ucar.edu/surface/
 
KCLT 260652Z 11011KT 10SM OVC011 18/16 A3021 RMK SLP222 TO1830156
KCLT 260637Z 11012KT 10SM OVC011 18/16 A3021 RMK T01830156
KCLT 260610Z 11008KT 10SM OVC009 18/16 A3021 RMK T01830156
KCLT 260552Z 08008KT 10SM OVC010 18/16 A3023 RMK SLP227 T01830156 10217 20183 58005
KCLT 260452Z 10010KT 10SM OVC013 19/16 A3023 RMK SLP230 T01940156 402220167
KCLT 260352Z 07009KT 10SM BKN016 BKN024 OVC055 19/16 A3023 RMK SLP232 T01940156
KCLT 260252Z 09009KT 10SM OVC024 21/17 A3022 RMK SLP228 T02060167 53004
KCLT 260152Z 09007KT 10SM OVC024 21/17 A3021 RMK SLP226 T02110167
KCLT 260052Z VRB05G14KT 10SM OVC024 21/17 A3021 RMK SLP223 T02110167
KCLT 252352Z 08009KT 10SM OVC022 22/17 A3021 RMK SLP225 T02170167 10222 20206 51002
KCLT 252252Z 07007KT 10SM OVC022 22/17 A3021 RMK SLP224 T02220167
KCLT 252152Z 06006KT 10SM OVC022 22/16 A3022 RMK SLP226 T02220161
KCLT 252052Z 06005KT 10SM OVC023 22/16 A3021 RMK SLP223 T02220161 58016
KCLT 251952Z VRB05KT 10SM BKN024 OVC032 22/16 A3023 RMK SLP230 T02170156
KCLT 251852Z 02004KT 10SM BKN020 OVC030 22/16 A3024 RMK SLP235 T02170156
KCLT 251752Z 09006KT 10SM OVC019 21/15 A3026 RMK SLP240 T02060150 10206 20172 58004
KCLT 251652Z 05008KT 10SM BKN016 OVC055 20/15 A3027 RMK SLP245 T02000150
KCLT 251552Z 02008G16KT 10SM OVC013 18/14 A3027 RMK SLP245 T01830144
KCLT 251452Z 07009KT 10SM OVC010 19/15 A3027 RMK SLP244 T01890150
KCLT 251352Z 07009G17KT 10SM OVC011 18/14 A3027 RMK SLP246 T01780144
KCLT 251252Z 04007KT 10SM OVC010 17/14 A3027 RMK SLP245 T01720139
KCLT 251152Z 07007KT 10SM OVC011 17/14 A3026 RMK SLP241 60000 T01720139 10172 20167 53017
KCLT 251052Z 04007KT 10SM OVC010 17/14 A3024 RMK SLP233 T01720139
KCLT 250952Z 16010KT 10SM OVC011 17/14 A3021 RMK RAE0854 SLP222 P0000 T01720139
KCLT 250852Z 17010KT 10SM -RA OVC012 17/14 A3021 RMK RAB45 PRESRR SLP222 P0000 60000 T01720139 55000
KCLT 250752Z 14010KT 10SM OVC012 17/14 A3020 RMK SLP219 T01720139
KCLT 250652Z 05005KT 10SM BKN013 BKN200 17/14 A3021 RMK SLP224 T01670139
KCLT 250633Z 03005KT 10SM BKN013 BKN200 17/14 A3020 RMK T01670139
KCLT 250552Z 03008KT 10SM SCT150 BKN220 17/14 A3021 RMK SLP223 T01720139 10211 20167 58007
KCLT 250452Z 03006KT 10SM FEW016 BKN200 17/13 A3021 RMK SLP226 T01720133 402500167
KCLT 250438Z 04008KT 10SM FEW016 BKN200 17/13 A3021 RMK T01720133
KCLT 250352Z 01010KT 10SM BKN016 BKN150 BKN190 18/14 A3023 RMK SLP233 T01780139
KCLT 250344Z 03011KT 10SM BKN016 BKN150 BKN190 17/14 A3023 RMK T01720139
KCLT 250252Z 03007KT 10SM SCT020 BKN140 BKN170 18/14 A3023 RMK SLP231 T01780139 51022
KCLT 250152Z 05009KT 10SM FEW020 FEW031 SCT190 18/14 A3021 RMK SLP223 T01830139
KCLT 250052Z 07012KT 10SM SCT031 BKN190 19/14 A3019 RMK SLP218 T01940144
KCLT 242352Z 06012KT 10SM FEW024 BKN033 BKN200 21/15 A3016 RMK SLP208 T02110150 10250 20211 53016
KCLT 242252Z 05010KT 10SM FEW026 BKN035 BKN250 22/16 A3013 RMK SLP198 T02220156
KCLT 242152Z 05010G20KT 10SM FEW025 BKN032 23/16 A3013 RMK SLP195 T02280156
KCLT 242052Z 03007KT 10SM FEW025 BKN032 BKN200 23/16 A3011 RMK SLP191 T02330161 56009
KCLT 241952Z 06006KT 10SM FEW025 BKN034 BKN200 24/16 A3012 RMK SLP191 T02390161
KCLT 241852Z 06004KT 10SM SCT024 BKN035 BKN190 23/16 A3013 RMK SLP196 T02280161
KCLT 241804Z 02006KT 10SM SCT021 SCT040 BKN220 23/16 A3014 RMK T02330161
KCLT 241752Z VRB04KT 10SM BKN020 BKN035 BKN220 22/16 A3014 RMK SLP201 T02170161 10233 20167 50002
KCLT 241652Z 34008KT 10SM BKN017 BKN035 BKN220 22/16 A3015 RMK SLP202 T02170161
KCLT 241644Z 01005KT 10SM BKN017 BKN030 BKN200 22/16 A3015 RMK T02170161
KCLT 241552Z 01007KT 10SM BKN013 BKN180 21/16 A3014 RMK SLP201 T02060161
KCLT 241540Z 36004KT 10SM BKN013 BKN180 21/16 A3014 RMK T02110161
KCLT 241452Z 34006KT 10SM BKN009 OVC012 19/16 A3014 RMK SLP198 T01890156 51016
KCLT 241438Z 01007KT 10SM BKN008 OVC011 19/16 A3013 RMK T01890161
KCLT 241352Z 01006KT 10SM OVC007 18/16 A3012 RMK CIG 006V010 SLP193 T01830161
KCLT 241252Z 34007KT 10SM BKN006 OVC030 17/16 A3011 RMK SLP188 T01720156
KCLT 241152Z 34005KT 10SM BKN005 OVC032 17/16 A3009 RMK SLP183 60002 70064 T01670156 10206 20167 52021
KCLT 241117Z 33006KT 10SM BKN006 OVC016 17/16 A3007 RMK T01670156
KCLT 241052Z 34005KT 10SM FEW006 OVC012 17/16 A3007 RMK RAE06DZB29E44 SLP174 P0000 T01670156
KCLT 241029Z 34006KT 6SM -DZ BR FEW006 OVC012 17/16 A3005 RMK RAE06DZB29 P0000 T01670156
KCLT 240952Z 35006KT 3SM -RA BR BKN004 OVC012 17/17 A3004 RMK SLP167 P0001 T01720167
KCLT 240852Z 34006KT 6SM -RA BR OVC006 19/18 A3002 RMK RAB39 CIG 003V009 SLP160 P0000 60001 T01890178 53004